Winston Salem, NC

4:56 PM EDT on August 29, 2014 (GMT -0400)
Waughtown | Change Station
CLOSE
Current Station
Personal Weather Station
Location: WINSTON-SALEM, NC
Elevation: 853 ft
Nearby Weather Stations

Elev 853 ft 36.06 °N, 80.24 °W | Updated 12 seconds ago

Overcast
Overcast
83.1 °F
Feels Like 87 °F
N
0.0
Wind Variable Wind from SW
Gusts 0.0 mph

Today
High -- | Low -- °F
--% Chance of Precip.
Yesterday
High -- | Low -- °F
Precip. -- in
6:50 AM 7:52 PM
Waxing Crescent, 16% visible
Pressure 30.11 in
Visibility 10.0 miles
Clouds Overcast 2700 ft
Heat Index 87 °F
Dew Point 70 °F
Humidity 65%
Rainfall 0.00 in
Snow Depth Not available.
UV 2 out of 12
Pollen 9.00 out of 12
Ozone Good
PM2.5 Moderate
Flu Activity Not available.
METAR KINT 291954Z 12006KT 10SM OVC027 27/19 A3014 RMK AO2 SLP196 T02720194

More Conditions Fewer Conditions

Pressure 30.11 in
Visibility 10.0 miles
Clouds Overcast 2700 ft
Heat Index 87 °F
Dew Point 70 °F
Humidity 65%
Rainfall 0.00 in
Snow Depth Not available.
UV 2 out of 12
Pollen 9.00 out of 12
Ozone Good
PM2.5 Moderate
Flu Activity Not available.
METAR KINT 291954Z 12006KT 10SM OVC027 27/19 A3014 RMK AO2 SLP196 T02720194

More Conditions Fewer Conditions

10-Day Weather Forecast

Almanac

Astronomy

Aug. 29, 2014 Rise Set
Actual Time 6:50 AM EDT 7:52 PM EDT
Civil Twilight 6:23 AM EDT 8:19 PM EDT
Nautical Twilight 5:52 AM EDT 8:50 PM EDT
Astronomical Twilight 5:19 AM EDT 9:22 PM EDT
Moon 10:29 AM EDT 9:58 PM EDT
Length of Visible Light 13h 55m
Length of Day
13h 02m
Tomorrow will be 2m 10s shorter.
Waxing Crescent, 16% of the Moon is Illuminated
Today
Waxing Crescent
Sep 2
First Quarter
Sep 8
Full
Sep 15
Last Quarter
Sep 24
New

Today's Extremes

State Highs State Lows

Community

WunderPhotos

Upload Photos

1,748,345 photos uploaded!

Nearby

Air Quality

  Air Quality AQ Index Pollutant
Yesterday Moderate
OZONE
Yesterday Moderate
PM2.5
Current Moderate
PM2.5
Current Good
OZONE
Friday Moderate
PM2.5
Friday Moderate
OZONE
Saturday Moderate
PM2.5
Saturday Moderate
OZONE
Sunday Good
OZONE
Sunday Good
PM2.5
Monday Good
OZONE
Monday Good
PM2.5

Snow Depth

Station Depth Elevation
No new snow has been reported.

Earthquake Activity

City Distance Mag. Time & Date
No recent earthquake activity has been reported nearby.
Minimum magnitude displayed is 2.5.

Coastal Water Temperatures

Place Temperature
No Stations Reporting

Nearby Weather Stations